sensor_id;sensor_type;location;lat;lon;timestamp;temperature;humidity
11597;DHT22;5854;48.072;16.286;2023-03-01T04:40:32;1.30;59.80
11597;DHT22;5854;48.072;16.286;2023-03-01T04:43:03;1.20;60.60
11597;DHT22;5854;48.072;16.286;2023-03-01T04:45:32;1.20;61.10
11597;DHT22;5854;48.072;16.286;2023-03-01T04:48:07;1.20;61.40
11597;DHT22;5854;48.072;16.286;2023-03-01T04:50:35;1.20;61.50
11597;DHT22;5854;48.072;16.286;2023-03-01T04:53:04;1.20;61.10
11597;DHT22;5854;48.072;16.286;2023-03-01T04:55:33;1.30;60.70
11597;DHT22;5854;48.072;16.286;2023-03-01T04:58:05;1.30;61.00
11597;DHT22;5854;48.072;16.286;2023-03-01T05:00:34;1.30;60.90
11597;DHT22;5854;48.072;16.286;2023-03-01T05:03:02;1.40;60.80
11597;DHT22;5854;48.072;16.286;2023-03-01T05:05:32;1.40;60.70
11597;DHT22;5854;48.072;16.286;2023-03-01T05:08:03;1.40;60.70
11597;DHT22;5854;48.072;16.286;2023-03-01T05:10:40;1.40;60.20
11597;DHT22;5854;48.072;16.286;2023-03-01T05:13:14;1.40;60.60
11597;DHT22;5854;48.072;16.286;2023-03-01T05:16:18;1.40;60.60
11597;DHT22;5854;48.072;16.286;2023-03-01T05:18:56;1.40;60.60
11597;DHT22;5854;48.072;16.286;2023-03-01T05:21:34;1.40;60.60
11597;DHT22;5854;48.072;16.286;2023-03-01T05:24:22;1.40;60.60
11597;DHT22;5854;48.072;16.286;2023-03-01T05:26:57;1.40;60.50
11597;DHT22;5854;48.072;16.286;2023-03-01T05:29:29;1.40;60.30
11597;DHT22;5854;48.072;16.286;2023-03-01T05:32:03;1.40;60.50
11597;DHT22;5854;48.072;16.286;2023-03-01T05:34:32;1.40;60.60
11597;DHT22;5854;48.072;16.286;2023-03-01T05:37:17;1.40;60.50
11597;DHT22;5854;48.072;16.286;2023-03-01T05:39:57;1.40;60.50
11597;DHT22;5854;48.072;16.286;2023-03-01T05:42:26;1.40;60.70
11597;DHT22;5854;48.072;16.286;2023-03-01T05:44:57;1.40;62.00
11597;DHT22;5854;48.072;16.286;2023-03-01T05:47:26;1.40;61.20
11597;DHT22;5854;48.072;16.286;2023-03-01T05:49:53;1.50;61.00
11597;DHT22;5854;48.072;16.286;2023-03-01T05:52:20;1.50;60.70
11597;DHT22;5854;48.072;16.286;2023-03-01T05:54:48;1.50;60.60
11597;DHT22;5854;48.072;16.286;2023-03-01T05:57:15;1.50;60.50
11597;DHT22;5854;48.072;16.286;2023-03-01T05:59:43;1.50;60.50
11597;DHT22;5854;48.072;16.286;2023-03-01T06:02:10;1.50;60.50
11597;DHT22;5854;48.072;16.286;2023-03-01T06:04:39;1.50;60.50
11597;DHT22;5854;48.072;16.286;2023-03-01T06:07:06;1.40;60.70
11597;DHT22;5854;48.072;16.286;2023-03-01T06:09:33;1.50;60.70
11597;DHT22;5854;48.072;16.286;2023-03-01T06:12:00;1.40;62.20
11597;DHT22;5854;48.072;16.286;2023-03-01T06:14:27;1.40;61.00
11597;DHT22;5854;48.072;16.286;2023-03-01T06:16:55;1.30;60.60
11597;DHT22;5854;48.072;16.286;2023-03-01T06:19:22;1.30;60.90
11597;DHT22;5854;48.072;16.286;2023-03-01T06:21:49;1.40;61.00
11597;DHT22;5854;48.072;16.286;2023-03-01T06:24:18;1.40;60.50
11597;DHT22;5854;48.072;16.286;2023-03-01T06:26:45;1.40;59.80
11597;DHT22;5854;48.072;16.286;2023-03-01T06:29:15;1.30;59.60
11597;DHT22;5854;48.072;16.286;2023-03-01T06:31:42;1.40;60.40
11597;DHT22;5854;48.072;16.286;2023-03-01T06:34:12;2.00;80.20
11597;DHT22;5854;48.072;16.286;2023-03-01T06:36:39;2.10;67.00
11597;DHT22;5854;48.072;16.286;2023-03-01T06:39:07;1.80;61.40
11597;DHT22;5854;48.072;16.286;2023-03-01T06:41:34;1.70;60.00
11597;DHT22;5854;48.072;16.286;2023-03-01T06:44:01;1.70;60.50
11597;DHT22;5854;48.072;16.286;2023-03-01T06:46:29;1.70;59.70
11597;DHT22;5854;48.072;16.286;2023-03-01T06:48:56;1.70;59.10
11597;DHT22;5854;48.072;16.286;2023-03-01T06:51:25;1.60;59.40
11597;DHT22;5854;48.072;16.286;2023-03-01T06:53:52;1.60;59.40
11597;DHT22;5854;48.072;16.286;2023-03-01T06:56:19;1.60;59.40
11597;DHT22;5854;48.072;16.286;2023-03-01T06:58:46;1.60;59.40
11597;DHT22;5854;48.072;16.286;2023-03-01T07:01:13;1.60;59.20
11597;DHT22;5854;48.072;16.286;2023-03-01T07:03:40;1.70;59.40
11597;DHT22;5854;48.072;16.286;2023-03-01T07:06:09;1.70;59.00
11597;DHT22;5854;48.072;16.286;2023-03-01T07:08:38;1.80;58.40
11597;DHT22;5854;48.072;16.286;2023-03-01T07:11:05;1.70;57.90
11597;DHT22;5854;48.072;16.286;2023-03-01T07:13:32;1.60;57.20
11597;DHT22;5854;48.072;16.286;2023-03-01T07:16:05;1.70;57.90
11597;DHT22;5854;48.072;16.286;2023-03-01T07:18:33;1.60;57.10
11597;DHT22;5854;48.072;16.286;2023-03-01T07:21:04;1.60;58.00
11597;DHT22;5854;48.072;16.286;2023-03-01T07:23:48;1.70;57.90
11597;DHT22;5854;48.072;16.286;2023-03-01T07:26:18;1.70;57.70
11597;DHT22;5854;48.072;16.286;2023-03-01T07:28:45;1.70;58.20
11597;DHT22;5854;48.072;16.286;2023-03-01T07:31:14;1.80;58.60
11597;DHT22;5854;48.072;16.286;2023-03-01T07:33:44;1.90;58.70
11597;DHT22;5854;48.072;16.286;2023-03-01T07:36:11;1.90;58.80
11597;DHT22;5854;48.072;16.286;2023-03-01T07:39:00;1.90;59.20
11597;DHT22;5854;48.072;16.286;2023-03-01T07:41:28;1.80;58.60
11597;DHT22;5854;48.072;16.286;2023-03-01T07:43:56;1.90;58.40
11597;DHT22;5854;48.072;16.286;2023-03-01T07:46:23;2.00;58.40
11597;DHT22;5854;48.072;16.286;2023-03-01T07:48:50;2.10;58.00
11597;DHT22;5854;48.072;16.286;2023-03-01T07:51:28;2.10;57.60
11597;DHT22;5854;48.072;16.286;2023-03-01T07:53:56;2.20;57.60
11597;DHT22;5854;48.072;16.286;2023-03-01T07:56:31;2.20;57.30
11597;DHT22;5854;48.072;16.286;2023-03-01T08:02:07;2.10;57.10
11597;DHT22;5854;48.072;16.286;2023-03-01T08:04:35;2.30;57.60
11597;DHT22;5854;48.072;16.286;2023-03-01T08:07:04;2.40;57.20
11597;DHT22;5854;48.072;16.286;2023-03-01T08:09:34;2.40;56.60
11597;DHT22;5854;48.072;16.286;2023-03-01T08:12:02;2.40;56.40
11597;DHT22;5854;48.072;16.286;2023-03-01T08:14:30;2.40;56.20
11597;DHT22;5854;48.072;16.286;2023-03-01T08:16:57;2.50;56.50
11597;DHT22;5854;48.072;16.286;2023-03-01T08:19:24;2.60;56.30
11597;DHT22;5854;48.072;16.286;2023-03-01T08:21:53;2.70;56.40
11597;DHT22;5854;48.072;16.286;2023-03-01T08:24:20;2.70;56.40
11597;DHT22;5854;48.072;16.286;2023-03-01T08:26:49;2.50;56.90
11597;DHT22;5854;48.072;16.286;2023-03-01T08:29:16;2.50;57.60
11597;DHT22;5854;48.072;16.286;2023-03-01T08:31:43;2.50;57.30
11597;DHT22;5854;48.072;16.286;2023-03-01T08:34:13;2.50;57.40
11597;DHT22;5854;48.072;16.286;2023-03-01T08:36:44;2.70;57.30
11597;DHT22;5854;48.072;16.286;2023-03-01T08:39:13;2.80;56.40
11597;DHT22;5854;48.072;16.286;2023-03-01T08:41:42;2.80;56.20
11597;DHT22;5854;48.072;16.286;2023-03-01T08:44:12;2.80;56.20
11597;DHT22;5854;48.072;16.286;2023-03-01T08:46:41;2.80;56.50
11597;DHT22;5854;48.072;16.286;2023-03-01T08:49:11;2.80;55.70
11597;DHT22;5854;48.072;16.286;2023-03-01T08:51:42;2.80;56.10
11597;DHT22;5854;48.072;16.286;2023-03-01T08:54:11;2.80;56.30
11597;DHT22;5854;48.072;16.286;2023-03-01T08:56:40;2.80;56.20
11597;DHT22;5854;48.072;16.286;2023-03-01T08:59:15;2.80;56.40
11597;DHT22;5854;48.072;16.286;2023-03-01T09:02:02;2.90;56.70
11597;DHT22;5854;48.072;16.286;2023-03-01T09:04:29;3.00;55.80
11597;DHT22;5854;48.072;16.286;2023-03-01T09:06:58;3.00;55.50
11597;DHT22;5854;48.072;16.286;2023-03-01T09:09:25;3.00;55.20
11597;DHT22;5854;48.072;16.286;2023-03-01T09:11:52;3.00;55.20
11597;DHT22;5854;48.072;16.286;2023-03-01T09:14:21;3.10;53.50
11597;DHT22;5854;48.072;16.286;2023-03-01T09:16:48;3.30;54.10
11597;DHT22;5854;48.072;16.286;2023-03-01T09:19:15;3.50;53.60
11597;DHT22;5854;48.072;16.286;2023-03-01T09:21:43;3.60;52.70
11597;DHT22;5854;48.072;16.286;2023-03-01T09:24:18;3.70;51.10
11597;DHT22;5854;48.072;16.286;2023-03-01T09:26:47;3.50;52.20
11597;DHT22;5854;48.072;16.286;2023-03-01T09:29:15;3.40;51.30
11597;DHT22;5854;48.072;16.286;2023-03-01T09:31:44;3.40;51.90
11597;DHT22;5854;48.072;16.286;2023-03-01T09:34:11;3.50;51.40
11597;DHT22;5854;48.072;16.286;2023-03-01T09:36:40;3.70;52.10
11597;DHT22;5854;48.072;16.286;2023-03-01T09:39:07;3.90;50.60
11597;DHT22;5854;48.072;16.286;2023-03-01T09:41:44;3.80;49.20
11597;DHT22;5854;48.072;16.286;2023-03-01T09:44:24;3.80;50.50
11597;DHT22;5854;48.072;16.286;2023-03-01T09:46:56;3.80;49.60
11597;DHT22;5854;48.072;16.286;2023-03-01T09:49:26;3.70;50.00
11597;DHT22;5854;48.072;16.286;2023-03-01T09:52:00;3.70;49.30
11597;DHT22;5854;48.072;16.286;2023-03-01T09:54:30;3.80;50.00
11597;DHT22;5854;48.072;16.286;2023-03-01T09:57:10;4.00;50.30
11597;DHT22;5854;48.072;16.286;2023-03-01T09:59:57;3.90;49.00
11597;DHT22;5854;48.072;16.286;2023-03-01T10:02:38;3.90;49.10
11597;DHT22;5854;48.072;16.286;2023-03-01T10:05:27;4.00;49.20
11597;DHT22;5854;48.072;16.286;2023-03-01T10:08:30;3.90;48.70
11597;DHT22;5854;48.072;16.286;2023-03-01T10:11:03;3.90;49.70
11597;DHT22;5854;48.072;16.286;2023-03-01T10:13:37;3.90;49.40
11597;DHT22;5854;48.072;16.286;2023-03-01T10:16:14;4.00;50.70
11597;DHT22;5854;48.072;16.286;2023-03-01T10:18:47;4.10;49.10
11597;DHT22;5854;48.072;16.286;2023-03-01T10:21:20;4.30;50.00
11597;DHT22;5854;48.072;16.286;2023-03-01T10:23:50;4.20;49.60
11597;DHT22;5854;48.072;16.286;2023-03-01T10:26:34;4.20;50.00
11597;DHT22;5854;48.072;16.286;2023-03-01T10:29:09;4.40;49.70
11597;DHT22;5854;48.072;16.286;2023-03-01T10:31:40;4.70;50.80
11597;DHT22;5854;48.072;16.286;2023-03-01T10:34:17;4.70;48.60
11597;DHT22;5854;48.072;16.286;2023-03-01T10:36:49;4.70;48.30
11597;DHT22;5854;48.072;16.286;2023-03-01T10:39:20;4.80;48.20
11597;DHT22;5854;48.072;16.286;2023-03-01T10:41:59;4.90;47.50
11597;DHT22;5854;48.072;16.286;2023-03-01T10:44:48;5.00;47.20
11597;DHT22;5854;48.072;16.286;2023-03-01T10:47:19;5.10;47.80
11597;DHT22;5854;48.072;16.286;2023-03-01T10:49:57;5.40;48.60
11597;DHT22;5854;48.072;16.286;2023-03-01T10:52:32;5.50;46.90
11597;DHT22;5854;48.072;16.286;2023-03-01T10:55:04;5.60;46.10
11597;DHT22;5854;48.072;16.286;2023-03-01T10:58:07;5.60;46.10
11597;DHT22;5854;48.072;16.286;2023-03-01T11:00:47;5.50;45.70
11597;DHT22;5854;48.072;16.286;2023-03-01T11:03:19;5.50;46.50
11597;DHT22;5854;48.072;16.286;2023-03-01T11:05:58;5.40;46.70
11597;DHT22;5854;48.072;16.286;2023-03-01T11:08:39;5.50;46.50
11597;DHT22;5854;48.072;16.286;2023-03-01T11:11:18;5.60;46.30
11597;DHT22;5854;48.072;16.286;2023-03-01T11:13:56;5.60;46.30
11597;DHT22;5854;48.072;16.286;2023-03-01T11:16:31;5.70;46.20
11597;DHT22;5854;48.072;16.286;2023-03-01T11:19:07;5.60;46.00
11597;DHT22;5854;48.072;16.286;2023-03-01T11:21:54;5.70;46.00
11597;DHT22;5854;48.072;16.286;2023-03-01T11:24:29;5.80;45.80
11597;DHT22;5854;48.072;16.286;2023-03-01T11:27:02;5.80;46.20
11597;DHT22;5854;48.072;16.286;2023-03-01T11:29:36;5.90;45.70
11597;DHT22;5854;48.072;16.286;2023-03-01T11:32:07;5.70;45.40
11597;DHT22;5854;48.072;16.286;2023-03-01T11:34:40;5.80;46.20
11597;DHT22;5854;48.072;16.286;2023-03-01T11:37:19;5.80;46.50
11597;DHT22;5854;48.072;16.286;2023-03-01T11:39:55;5.80;45.80
11597;DHT22;5854;48.072;16.286;2023-03-01T11:42:39;5.80;46.20
11597;DHT22;5854;48.072;16.286;2023-03-01T11:45:12;5.90;46.10
11597;DHT22;5854;48.072;16.286;2023-03-01T11:47:51;6.10;46.80
11597;DHT22;5854;48.072;16.286;2023-03-01T11:50:30;6.00;45.40
11597;DHT22;5854;48.072;16.286;2023-03-01T11:53:19;6.10;46.00
11597;DHT22;5854;48.072;16.286;2023-03-01T11:56:03;6.10;45.90
11597;DHT22;5854;48.072;16.286;2023-03-01T11:58:50;6.20;49.50
11597;DHT22;5854;48.072;16.286;2023-03-01T12:01:32;6.20;46.00
11597;DHT22;5854;48.072;16.286;2023-03-01T12:07:25;6.30;47.10
11597;DHT22;5854;48.072;16.286;2023-03-01T12:10:20;6.40;46.00
11597;DHT22;5854;48.072;16.286;2023-03-01T12:13:08;6.50;45.80
11597;DHT22;5854;48.072;16.286;2023-03-01T12:16:04;6.50;46.00
11597;DHT22;5854;48.072;16.286;2023-03-01T12:18:47;6.60;46.00
11597;DHT22;5854;48.072;16.286;2023-03-01T12:21:30;6.50;46.40
11597;DHT22;5854;48.072;16.286;2023-03-01T12:24:30;6.40;45.60
11597;DHT22;5854;48.072;16.286;2023-03-01T12:27:42;6.50;46.60
11597;DHT22;5854;48.072;16.286;2023-03-01T12:30:32;6.60;48.40
11597;DHT22;5854;48.072;16.286;2023-03-01T12:33:13;6.60;45.40
11597;DHT22;5854;48.072;16.286;2023-03-01T12:38:59;6.60;46.40
11597;DHT22;5854;48.072;16.286;2023-03-01T12:41:42;6.60;46.10
11597;DHT22;5854;48.072;16.286;2023-03-01T12:44:29;6.60;46.10
11597;DHT22;5854;48.072;16.286;2023-03-01T12:47:20;6.60;46.30
11597;DHT22;5854;48.072;16.286;2023-03-01T12:49:57;6.60;46.50
11597;DHT22;5854;48.072;16.286;2023-03-01T12:52:33;6.90;57.40
11597;DHT22;5854;48.072;16.286;2023-03-01T12:55:08;7.00;45.70
11597;DHT22;5854;48.072;16.286;2023-03-01T12:58:00;6.90;45.50
11597;DHT22;5854;48.072;16.286;2023-03-01T13:00:38;6.80;45.50
11597;DHT22;5854;48.072;16.286;2023-03-01T13:03:18;6.70;45.50
11597;DHT22;5854;48.072;16.286;2023-03-01T13:06:00;6.70;45.90
11597;DHT22;5854;48.072;16.286;2023-03-01T13:08:36;6.70;46.30
11597;DHT22;5854;48.072;16.286;2023-03-01T13:11:16;6.70;47.40
11597;DHT22;5854;48.072;16.286;2023-03-01T13:13:45;6.70;47.10
11597;DHT22;5854;48.072;16.286;2023-03-01T13:16:39;6.70;46.20
11597;DHT22;5854;48.072;16.286;2023-03-01T13:19:12;6.80;46.10
11597;DHT22;5854;48.072;16.286;2023-03-01T13:21:42;7.00;46.70
11597;DHT22;5854;48.072;16.286;2023-03-01T13:24:25;6.90;46.00
11597;DHT22;5854;48.072;16.286;2023-03-01T13:27:23;6.70;45.80
11597;DHT22;5854;48.072;16.286;2023-03-01T13:29:56;6.70;48.50
11597;DHT22;5854;48.072;16.286;2023-03-01T13:32:31;6.80;46.70
11597;DHT22;5854;48.072;16.286;2023-03-01T13:34:59;6.80;47.10
11597;DHT22;5854;48.072;16.286;2023-03-01T13:37:32;6.90;47.40
11597;DHT22;5854;48.072;16.286;2023-03-01T13:40:04;6.90;47.10
11597;DHT22;5854;48.072;16.286;2023-03-01T13:42:52;7.00;47.60
11597;DHT22;5854;48.072;16.286;2023-03-01T13:45:24;7.00;48.30
11597;DHT22;5854;48.072;16.286;2023-03-01T13:48:08;7.00;47.00
11597;DHT22;5854;48.072;16.286;2023-03-01T13:50:43;7.00;46.40
11597;DHT22;5854;48.072;16.286;2023-03-01T13:53:17;7.10;47.40
11597;DHT22;5854;48.072;16.286;2023-03-01T13:55:46;7.20;46.90
11597;DHT22;5854;48.072;16.286;2023-03-01T13:58:19;7.10;46.50
11597;DHT22;5854;48.072;16.286;2023-03-01T14:00:56;7.10;46.90
11597;DHT22;5854;48.072;16.286;2023-03-01T14:03:26;7.10;47.40
11597;DHT22;5854;48.072;16.286;2023-03-01T14:06:15;7.00;47.30
11597;DHT22;5854;48.072;16.286;2023-03-01T14:08:45;7.00;47.80
11597;DHT22;5854;48.072;16.286;2023-03-01T14:11:32;7.00;48.00
11597;DHT22;5854;48.072;16.286;2023-03-01T14:20:49;7.30;47.20
11597;DHT22;5854;48.072;16.286;2023-03-01T14:23:20;7.20;47.30
11597;DHT22;5854;48.072;16.286;2023-03-01T14:25:50;7.10;47.10
11597;DHT22;5854;48.072;16.286;2023-03-01T14:28:20;7.50;60.00
11597;DHT22;5854;48.072;16.286;2023-03-01T14:30:49;8.00;50.30
11597;DHT22;5854;48.072;16.286;2023-03-01T14:33:23;7.90;47.70
11597;DHT22;5854;48.072;16.286;2023-03-01T14:38:48;7.40;47.20
11597;DHT22;5854;48.072;16.286;2023-03-01T14:41:19;7.40;47.40
11597;DHT22;5854;48.072;16.286;2023-03-01T14:43:52;7.40;48.10
11597;DHT22;5854;48.072;16.286;2023-03-01T14:46:26;7.30;47.20
11597;DHT22;5854;48.072;16.286;2023-03-01T14:49:03;7.20;47.50
11597;DHT22;5854;48.072;16.286;2023-03-01T14:51:38;7.20;47.90
11597;DHT22;5854;48.072;16.286;2023-03-01T14:54:19;7.20;48.10
11597;DHT22;5854;48.072;16.286;2023-03-01T14:56:48;7.20;48.20
11597;DHT22;5854;48.072;16.286;2023-03-01T14:59:21;7.10;48.50
11597;DHT22;5854;48.072;16.286;2023-03-01T15:01:49;7.20;48.70
11597;DHT22;5854;48.072;16.286;2023-03-01T15:04:16;7.30;49.10
11597;DHT22;5854;48.072;16.286;2023-03-01T15:06:45;7.20;49.10
11597;DHT22;5854;48.072;16.286;2023-03-01T15:09:16;7.10;48.90
11597;DHT22;5854;48.072;16.286;2023-03-01T15:11:44;7.00;49.40
11597;DHT22;5854;48.072;16.286;2023-03-01T15:14:28;7.00;49.60
11597;DHT22;5854;48.072;16.286;2023-03-01T15:17:20;7.00;50.20
11597;DHT22;5854;48.072;16.286;2023-03-01T15:19:50;7.00;52.90
11597;DHT22;5854;48.072;16.286;2023-03-01T15:22:17;7.10;50.40
11597;DHT22;5854;48.072;16.286;2023-03-01T15:24:49;6.90;50.70
11597;DHT22;5854;48.072;16.286;2023-03-01T15:27:17;6.90;50.80
11597;DHT22;5854;48.072;16.286;2023-03-01T15:29:49;6.90;51.60
11597;DHT22;5854;48.072;16.286;2023-03-01T15:32:27;6.90;51.30
11597;DHT22;5854;48.072;16.286;2023-03-01T15:34:57;6.90;51.10
11597;DHT22;5854;48.072;16.286;2023-03-01T15:37:39;7.00;51.30
11597;DHT22;5854;48.072;16.286;2023-03-01T15:40:24;6.90;50.90
11597;DHT22;5854;48.072;16.286;2023-03-01T15:42:57;6.90;50.50
11597;DHT22;5854;48.072;16.286;2023-03-01T15:45:26;7.20;57.00
11597;DHT22;5854;48.072;16.286;2023-03-01T15:47:56;7.00;50.00
11597;DHT22;5854;48.072;16.286;2023-03-01T15:50:29;6.90;51.80
11597;DHT22;5854;48.072;16.286;2023-03-01T15:52:59;7.10;51.80
11597;DHT22;5854;48.072;16.286;2023-03-01T15:55:31;7.00;50.30
11597;DHT22;5854;48.072;16.286;2023-03-01T15:58:00;6.80;50.40
11597;DHT22;5854;48.072;16.286;2023-03-01T16:00:29;6.80;50.60
11597;DHT22;5854;48.072;16.286;2023-03-01T16:02:57;6.70;51.00
11597;DHT22;5854;48.072;16.286;2023-03-01T16:05:25;6.70;51.10
11597;DHT22;5854;48.072;16.286;2023-03-01T16:07:54;6.70;51.80
11597;DHT22;5854;48.072;16.286;2023-03-01T16:10:22;6.60;51.00
11597;DHT22;5854;48.072;16.286;2023-03-01T16:12:51;6.60;51.10
11597;DHT22;5854;48.072;16.286;2023-03-01T16:15:20;6.60;51.40
11597;DHT22;5854;48.072;16.286;2023-03-01T16:17:49;6.60;51.50
11597;DHT22;5854;48.072;16.286;2023-03-01T16:20:18;6.60;51.20
11597;DHT22;5854;48.072;16.286;2023-03-01T16:22:46;6.60;51.40
11597;DHT22;5854;48.072;16.286;2023-03-01T16:25:15;6.60;51.20
11597;DHT22;5854;48.072;16.286;2023-03-01T16:27:43;6.50;51.20
11597;DHT22;5854;48.072;16.286;2023-03-01T16:30:14;6.50;51.40
11597;DHT22;5854;48.072;16.286;2023-03-01T16:32:46;6.50;55.00
11597;DHT22;5854;48.072;16.286;2023-03-01T16:38:44;6.50;51.70
11597;DHT22;5854;48.072;16.286;2023-03-01T16:41:28;6.50;51.60
11597;DHT22;5854;48.072;16.286;2023-03-01T16:44:00;6.50;51.80
11597;DHT22;5854;48.072;16.286;2023-03-01T16:46:29;6.50;52.30
11597;DHT22;5854;48.072;16.286;2023-03-01T16:48:56;6.50;52.60
11597;DHT22;5854;48.072;16.286;2023-03-01T16:51:24;6.40;52.10
11597;DHT22;5854;48.072;16.286;2023-03-01T16:53:52;6.40;51.60
11597;DHT22;5854;48.072;16.286;2023-03-01T16:56:22;6.60;54.10
11597;DHT22;5854;48.072;16.286;2023-03-01T16:58:52;6.50;52.00
11597;DHT22;5854;48.072;16.286;2023-03-01T17:01:20;6.50;52.30
11597;DHT22;5854;48.072;16.286;2023-03-01T17:03:52;6.50;53.00
11597;DHT22;5854;48.072;16.286;2023-03-01T17:06:20;6.50;53.10
11597;DHT22;5854;48.072;16.286;2023-03-01T17:08:50;6.40;52.30
11597;DHT22;5854;48.072;16.286;2023-03-01T17:11:19;6.40;52.00
11597;DHT22;5854;48.072;16.286;2023-03-01T17:13:53;6.40;52.00
11597;DHT22;5854;48.072;16.286;2023-03-01T17:20:02;6.40;52.80
11597;DHT22;5854;48.072;16.286;2023-03-01T17:22:29;6.30;53.60
11597;DHT22;5854;48.072;16.286;2023-03-01T17:25:13;6.20;54.00
11597;DHT22;5854;48.072;16.286;2023-03-01T17:27:44;6.10;55.20
11597;DHT22;5854;48.072;16.286;2023-03-01T17:30:13;6.10;55.30
11597;DHT22;5854;48.072;16.286;2023-03-01T17:32:41;6.20;55.40
11597;DHT22;5854;48.072;16.286;2023-03-01T17:35:12;6.10;56.70
11597;DHT22;5854;48.072;16.286;2023-03-01T17:37:42;6.10;57.00
11597;DHT22;5854;48.072;16.286;2023-03-01T17:40:11;6.10;57.50
11597;DHT22;5854;48.072;16.286;2023-03-01T17:42:39;6.10;56.90
11597;DHT22;5854;48.072;16.286;2023-03-01T17:45:07;6.20;57.50
11597;DHT22;5854;48.072;16.286;2023-03-01T17:47:34;6.10;56.80
11597;DHT22;5854;48.072;16.286;2023-03-01T17:50:01;6.10;56.80
11597;DHT22;5854;48.072;16.286;2023-03-01T17:52:31;6.10;56.80
11597;DHT22;5854;48.072;16.286;2023-03-01T17:54:58;6.10;57.20
11597;DHT22;5854;48.072;16.286;2023-03-01T17:57:25;6.00;57.50
11597;DHT22;5854;48.072;16.286;2023-03-01T17:59:53;6.00;56.90
11597;DHT22;5854;48.072;16.286;2023-03-01T18:02:20;6.10;56.80
11597;DHT22;5854;48.072;16.286;2023-03-01T18:04:47;6.10;56.40
11597;DHT22;5854;48.072;16.286;2023-03-01T18:07:14;6.10;56.60
11597;DHT22;5854;48.072;16.286;2023-03-01T18:09:43;6.10;56.10
11597;DHT22;5854;48.072;16.286;2023-03-01T18:12:10;6.10;56.10
11597;DHT22;5854;48.072;16.286;2023-03-01T18:14:37;6.00;56.30
11597;DHT22;5854;48.072;16.286;2023-03-01T18:17:04;6.00;56.00
11597;DHT22;5854;48.072;16.286;2023-03-01T18:19:36;6.10;55.90
11597;DHT22;5854;48.072;16.286;2023-03-01T18:22:06;6.10;55.90
11597;DHT22;5854;48.072;16.286;2023-03-01T18:24:33;6.10;56.50
11597;DHT22;5854;48.072;16.286;2023-03-01T18:27:02;6.00;55.70
11597;DHT22;5854;48.072;16.286;2023-03-01T18:29:29;5.90;56.00
11597;DHT22;5854;48.072;16.286;2023-03-01T18:31:56;5.90;56.20
11597;DHT22;5854;48.072;16.286;2023-03-01T18:34:23;5.90;56.20
11597;DHT22;5854;48.072;16.286;2023-03-01T18:36:50;5.80;58.50
11597;DHT22;5854;48.072;16.286;2023-03-01T18:39:20;5.80;57.70
11597;DHT22;5854;48.072;16.286;2023-03-01T18:41:51;5.80;57.40
11597;DHT22;5854;48.072;16.286;2023-03-01T18:44:19;5.80;56.90
11597;DHT22;5854;48.072;16.286;2023-03-01T18:46:46;5.80;56.70
11597;DHT22;5854;48.072;16.286;2023-03-01T18:49:14;5.80;56.80
11597;DHT22;5854;48.072;16.286;2023-03-01T18:51:42;5.80;56.70
11597;DHT22;5854;48.072;16.286;2023-03-01T18:54:11;5.80;56.60
11597;DHT22;5854;48.072;16.286;2023-03-01T18:56:38;5.80;57.00
11597;DHT22;5854;48.072;16.286;2023-03-01T18:59:05;5.70;57.10
11597;DHT22;5854;48.072;16.286;2023-03-01T19:01:33;5.70;57.00
11597;DHT22;5854;48.072;16.286;2023-03-01T19:04:01;5.80;57.00
11597;DHT22;5854;48.072;16.286;2023-03-01T19:06:30;5.80;57.10
11597;DHT22;5854;48.072;16.286;2023-03-01T19:08:59;5.70;57.00
11597;DHT22;5854;48.072;16.286;2023-03-01T19:11:26;5.70;56.60
11597;DHT22;5854;48.072;16.286;2023-03-01T19:13:55;5.70;56.40
11597;DHT22;5854;48.072;16.286;2023-03-01T19:16:25;5.60;57.10
11597;DHT22;5854;48.072;16.286;2023-03-01T19:18:57;5.60;57.30
11597;DHT22;5854;48.072;16.286;2023-03-01T19:21:28;5.60;57.20
11597;DHT22;5854;48.072;16.286;2023-03-01T19:23:56;5.50;57.20
11597;DHT22;5854;48.072;16.286;2023-03-01T19:26:25;5.50;57.30
11597;DHT22;5854;48.072;16.286;2023-03-01T19:28:53;5.50;57.40
11597;DHT22;5854;48.072;16.286;2023-03-01T19:31:22;5.50;57.60
11597;DHT22;5854;48.072;16.286;2023-03-01T19:33:51;5.40;57.50
11597;DHT22;5854;48.072;16.286;2023-03-01T19:36:20;5.40;57.70
11597;DHT22;5854;48.072;16.286;2023-03-01T19:38:53;5.40;57.80
11597;DHT22;5854;48.072;16.286;2023-03-01T19:41:20;5.40;57.70
11597;DHT22;5854;48.072;16.286;2023-03-01T19:43:47;5.30;58.30
11597;DHT22;5854;48.072;16.286;2023-03-01T19:46:14;5.30;58.50
11597;DHT22;5854;48.072;16.286;2023-03-01T19:48:42;5.20;58.20
11597;DHT22;5854;48.072;16.286;2023-03-01T19:51:10;5.20;58.10
11597;DHT22;5854;48.072;16.286;2023-03-01T19:53:39;5.20;57.50
11597;DHT22;5854;48.072;16.286;2023-03-01T19:56:07;5.20;58.30
11597;DHT22;5854;48.072;16.286;2023-03-01T19:58:35;5.10;58.40
11597;DHT22;5854;48.072;16.286;2023-03-01T20:01:03;5.10;58.40
11597;DHT22;5854;48.072;16.286;2023-03-01T20:03:31;5.10;57.70
11597;DHT22;5854;48.072;16.286;2023-03-01T20:06:06;5.00;58.70
11597;DHT22;5854;48.072;16.286;2023-03-01T20:08:34;5.00;58.20
11597;DHT22;5854;48.072;16.286;2023-03-01T20:11:03;5.00;59.00
11597;DHT22;5854;48.072;16.286;2023-03-01T20:13:31;4.90;58.10
11597;DHT22;5854;48.072;16.286;2023-03-01T20:15:59;4.90;59.20
11597;DHT22;5854;48.072;16.286;2023-03-01T20:18:27;4.90;58.50
11597;DHT22;5854;48.072;16.286;2023-03-01T20:20:54;4.90;58.60
11597;DHT22;5854;48.072;16.286;2023-03-01T20:23:21;4.90;58.70
11597;DHT22;5854;48.072;16.286;2023-03-01T20:25:48;5.00;58.20
11597;DHT22;5854;48.072;16.286;2023-03-01T20:28:18;4.90;58.70
11597;DHT22;5854;48.072;16.286;2023-03-01T20:30:45;4.90;58.60
11597;DHT22;5854;48.072;16.286;2023-03-01T20:33:12;4.90;58.80
11597;DHT22;5854;48.072;16.286;2023-03-01T20:35:40;5.00;59.00
11597;DHT22;5854;48.072;16.286;2023-03-01T20:38:08;4.90;58.80
11597;DHT22;5854;48.072;16.286;2023-03-01T20:40:36;4.90;59.10
11597;DHT22;5854;48.072;16.286;2023-03-01T20:43:03;4.90;59.30
11597;DHT22;5854;48.072;16.286;2023-03-01T20:45:31;5.00;59.20
11597;DHT22;5854;48.072;16.286;2023-03-01T20:47:58;4.90;58.60
11597;DHT22;5854;48.072;16.286;2023-03-01T20:50:25;5.00;59.10
11597;DHT22;5854;48.072;16.286;2023-03-01T20:52:52;5.00;59.80
11597;DHT22;5854;48.072;16.286;2023-03-01T20:55:19;5.00;59.00
11597;DHT22;5854;48.072;16.286;2023-03-01T20:57:47;5.00;59.20
11597;DHT22;5854;48.072;16.286;2023-03-01T21:00:14;5.00;59.10
11597;DHT22;5854;48.072;16.286;2023-03-01T21:02:43;5.00;59.20
11597;DHT22;5854;48.072;16.286;2023-03-01T21:05:10;5.10;59.30
11597;DHT22;5854;48.072;16.286;2023-03-01T21:07:36;5.00;59.50
11597;DHT22;5854;48.072;16.286;2023-03-01T21:10:04;5.00;59.60
11597;DHT22;5854;48.072;16.286;2023-03-01T21:12:31;4.90;59.40
11597;DHT22;5854;48.072;16.286;2023-03-01T21:14:58;4.90;59.60
11597;DHT22;5854;48.072;16.286;2023-03-01T21:17:25;4.90;59.70
11597;DHT22;5854;48.072;16.286;2023-03-01T21:19:54;4.90;59.60
11597;DHT22;5854;48.072;16.286;2023-03-01T21:22:21;5.00;59.60